createdAt,value
2023-04-17T00:02:03.178Z,25
2023-04-17T00:04:09.516Z,26.9
2023-04-17T00:06:15.623Z,24.4
2023-04-17T00:08:21.865Z,30.5
2023-04-17T00:10:28.107Z,24.5
2023-04-17T00:12:37.164Z,25.7
2023-04-17T00:14:43.414Z,23.6
2023-04-17T00:29:29.877Z,26.4
2023-04-17T00:31:36.219Z,26.9
2023-04-17T00:47:28.788Z,25.8
2023-04-17T00:49:34.939Z,24.1
2023-04-17T00:53:47.416Z,23.3
2023-04-17T01:02:15.290Z,27.8
2023-04-17T01:08:33.900Z,26.4
2023-04-17T01:10:42.980Z,27.8
2023-04-17T01:14:55.458Z,27.2
2023-04-17T01:17:01.789Z,27.4
2023-04-17T01:19:07.936Z,23.9
2023-04-17T01:21:14.206Z,23.7
2023-04-17T01:23:20.444Z,24.7
2023-04-17T01:25:29.465Z,25.2
2023-04-17T01:27:35.715Z,26.7
2023-04-17T01:29:41.938Z,25.8
2023-04-17T01:31:48.186Z,25.3
2023-04-17T01:33:54.449Z,25.8
2023-04-17T01:36:00.694Z,25.4
2023-04-17T01:38:06.904Z,23.5
2023-04-17T01:40:15.968Z,27.3
2023-04-17T01:42:22.178Z,26.5
2023-04-17T01:44:28.436Z,23.6
2023-04-17T01:45:32.974Z,26.6
2023-04-17T01:47:39.235Z,26.9
2023-04-17T01:49:45.452Z,23.7
2023-04-17T01:51:51.690Z,24.3
2023-04-17T01:56:06.948Z,25
2023-04-17T02:02:25.764Z,25.7
2023-04-17T02:04:32.003Z,27.2
2023-04-17T02:06:39.304Z,25.3
2023-04-17T02:10:53.358Z,26.4
2023-04-17T02:12:59.610Z,30
2023-04-17T02:17:12.053Z,27.7
2023-04-17T02:19:18.306Z,23.6
2023-04-17T02:23:33.564Z,24.8
2023-04-17T02:27:46.015Z,26.9
2023-04-17T02:29:52.263Z,25.3
2023-04-17T02:34:04.715Z,28.7
2023-04-17T02:36:10.955Z,29
2023-04-17T02:40:26.216Z,26.6
2023-04-17T02:42:32.448Z,28.9
2023-04-17T02:43:36.944Z,27.3
2023-04-17T02:45:43.185Z,23
2023-04-17T02:47:49.431Z,27.4
2023-04-17T02:52:04.690Z,31.7
2023-04-17T02:56:17.143Z,26.1
2023-04-17T03:00:29.639Z,31.4
2023-04-17T03:04:42.042Z,32.6
2023-04-17T03:08:57.318Z,30.9
2023-04-17T03:11:03.561Z,34.2
2023-04-17T03:21:37.493Z,34.8
2023-04-17T03:25:49.960Z,35.3
2023-04-17T03:30:02.411Z,31.2
2023-04-17T03:34:14.906Z,33.6
2023-04-17T03:38:30.146Z,35.1
2023-04-17T03:45:08.429Z,26.9
2023-04-17T03:47:14.672Z,29.8
2023-04-17T03:49:23.710Z,33
2023-04-17T03:51:29.942Z,37.5
2023-04-17T03:53:36.191Z,34.6
2023-04-17T03:55:42.410Z,34.5
2023-04-17T03:59:54.885Z,31.3
2023-04-17T04:02:01.189Z,31.6
2023-04-17T04:04:10.360Z,36.8
2023-04-17T04:06:16.432Z,34.3
2023-04-17T04:08:22.601Z,31.1
2023-04-17T04:10:28.866Z,33.3
2023-04-17T04:12:35.104Z,26.4
2023-04-17T04:14:42.132Z,32.2
2023-04-17T04:16:47.567Z,30.9
2023-04-17T04:18:56.603Z,37.4
2023-04-17T04:21:02.844Z,33.5
2023-04-17T04:23:09.097Z,29.4
2023-04-17T04:25:15.307Z,34.4
2023-04-17T04:27:21.551Z,33.6
2023-04-17T04:39:00.026Z,38.1
2023-04-17T04:41:06.624Z,31
2023-04-17T04:45:18.736Z,38
2023-04-17T04:47:27.786Z,38
2023-04-17T04:49:33.972Z,38.4
2023-04-17T04:55:52.667Z,38.4
2023-04-17T04:57:58.927Z,35.1
2023-04-17T05:00:05.130Z,35.4
2023-04-17T05:02:14.350Z,39.9
2023-04-17T05:04:20.452Z,36.2
2023-04-17T05:06:26.618Z,37.6
2023-04-17T05:08:32.890Z,38.8
2023-04-17T05:10:39.101Z,37.4
2023-04-17T05:12:45.317Z,38.6
2023-04-17T05:14:51.572Z,35.5
2023-04-17T05:17:00.585Z,42.3
2023-04-17T05:19:06.824Z,31.6
2023-04-17T05:21:13.050Z,38.5
2023-04-17T05:23:19.290Z,39.9
2023-04-17T05:27:31.762Z,35.7
2023-04-17T05:29:37.980Z,35.5
2023-04-17T05:33:53.230Z,42
2023-04-17T05:39:10.569Z,42.9
2023-04-17T05:41:16.432Z,43
2023-04-17T05:43:22.680Z,36.8
2023-04-17T05:45:31.738Z,39
2023-04-17T05:47:37.991Z,42.4
2023-04-17T05:49:44.190Z,45.4
2023-04-17T05:53:56.626Z,39.3
2023-04-17T05:56:02.857Z,40.1
2023-04-17T05:58:22.625Z,37
2023-04-17T06:00:18.130Z,42
2023-04-17T06:02:24.483Z,42.8
2023-04-17T06:06:36.871Z,38.6
2023-04-17T06:08:43.062Z,37.7
2023-04-17T06:15:04.565Z,38.5
2023-04-17T06:17:10.905Z,34.4
2023-04-17T06:25:35.881Z,39.7
2023-04-17T06:34:03.491Z,34.5
2023-04-17T06:37:14.230Z,32
2023-04-17T06:39:20.472Z,34.6
2023-04-17T06:41:26.722Z,39.5
2023-04-17T06:43:35.748Z,36.5
2023-04-17T06:47:48.268Z,41.6
2023-04-17T06:49:54.471Z,38.2
2023-04-17T06:52:02.296Z,37.9
2023-04-17T06:54:08.498Z,30.3
2023-04-17T06:56:14.723Z,33.8
2023-04-17T07:15:16.603Z,33.8
2023-04-17T07:19:29.027Z,32.6
2023-04-17T07:21:35.278Z,32.7
2023-04-17T07:23:41.509Z,41
2023-04-17T07:25:47.863Z,36
2023-04-17T07:27:56.903Z,43.3
2023-04-17T07:30:03.043Z,40.6
2023-04-17T07:32:09.314Z,40.1
2023-04-17T07:34:40.642Z,38.1
2023-04-17T07:36:46.888Z,39.4
2023-04-17T07:49:27.205Z,35.6
2023-04-17T07:51:33.446Z,33.2
2023-04-17T07:53:39.694Z,29.3
2023-04-17T07:55:49.244Z,32
2023-04-17T07:57:55.011Z,35.2
2023-04-17T08:00:01.286Z,37
2023-04-17T08:02:07.590Z,25.3
2023-04-17T08:06:20.003Z,35.5
2023-04-17T08:10:35.310Z,35.5
2023-04-17T08:14:47.821Z,36.5
2023-04-17T08:19:00.321Z,31.7
2023-04-17T08:23:12.832Z,34.1
2023-04-17T08:30:38.982Z,34.1
2023-04-17T08:41:13.113Z,31.2
2023-04-17T08:43:19.381Z,28.1
2023-04-17T08:51:44.951Z,29.9
2023-04-17T08:53:54.028Z,29.1
2023-04-17T08:58:06.608Z,28.2
2023-04-17T09:00:12.881Z,27
2023-04-17T09:02:19.246Z,25.2
2023-04-17T09:04:25.570Z,27.3
2023-04-17T09:06:31.742Z,25
2023-04-17T09:08:40.865Z,28.1
2023-04-17T09:19:12.467Z,23.9
2023-04-17T09:23:27.651Z,22.3
2023-04-17T09:25:33.946Z,24.8
2023-04-17T09:27:40.213Z,25
2023-04-17T09:28:44.785Z,26.5
2023-04-17T09:35:03.675Z,25.7
2023-04-17T09:41:25.322Z,23.9
2023-04-17T09:43:31.612Z,25.4
2023-04-17T09:47:44.257Z,23.8
2023-04-17T09:49:50.475Z,22.3
2023-04-17T09:51:59.568Z,26.1
2023-04-17T09:54:05.893Z,21.4
2023-04-17T09:56:12.162Z,16.5
2023-04-17T09:58:18.461Z,23.4
2023-04-17T10:02:31.127Z,21
2023-04-17T10:06:46.457Z,22.3
2023-04-17T10:08:52.713Z,23
2023-04-17T10:17:17.898Z,25.7
2023-04-17T10:19:24.155Z,20.3
2023-04-17T10:21:33.292Z,24.9
2023-04-17T10:23:39.556Z,23.6
2023-04-17T10:25:45.838Z,23.7
2023-04-17T10:26:50.417Z,22.4
2023-04-17T10:28:56.715Z,25.8
2023-04-17T10:31:02.964Z,24.2
2023-04-17T10:33:09.861Z,21.5
2023-04-17T10:39:30.966Z,22.1
2023-04-17T10:41:37.212Z,22.7
2023-04-17T10:43:43.512Z,16.2
2023-04-17T10:47:56.109Z,23.2
2023-04-17T10:50:05.213Z,23.1
2023-04-17T10:52:11.472Z,22.3
2023-04-17T10:54:17.761Z,21.4
2023-04-17T10:56:24.064Z,22.1
2023-04-17T11:00:36.670Z,19.8
2023-04-17T11:09:04.597Z,19.3
2023-04-17T11:11:10.868Z,18.2
2023-04-17T11:15:23.464Z,17.4
2023-04-17T11:17:29.745Z,17.8
2023-04-17T11:19:38.879Z,17.5
2023-04-17T11:21:45.145Z,16.7
2023-04-17T11:26:17.418Z,18
2023-04-17T11:30:29.927Z,16.9
2023-04-17T11:34:45.344Z,18.8
2023-04-17T11:36:51.665Z,15.8
2023-04-17T11:38:57.926Z,18.1
2023-04-17T11:45:16.756Z,16.7
2023-04-17T11:47:25.933Z,18.7
2023-04-17T11:49:34.014Z,18
2023-04-17T11:51:38.444Z,16.1
2023-04-17T11:53:44.722Z,14.5
2023-04-17T12:00:03.615Z,14
2023-04-17T12:06:25.272Z,13.5
2023-04-17T12:10:37.846Z,13.4
2023-04-17T12:14:50.423Z,14.4
2023-04-17T12:16:59.553Z,14.3
2023-04-17T12:21:12.119Z,13.4
2023-04-17T12:24:22.934Z,14.2
2023-04-17T12:28:35.525Z,14.3
2023-04-17T12:30:44.613Z,14.1
2023-04-17T12:39:09.713Z,14.6
2023-04-17T12:41:15.989Z,14.8
2023-04-17T12:49:43.958Z,13.6
2023-04-17T12:51:50.239Z,12.5
2023-04-17T13:00:19.743Z,12.2
2023-04-17T13:02:26.159Z,11.6
2023-04-17T13:06:38.580Z,11.9
2023-04-17T13:08:44.824Z,10.6
2023-04-17T13:12:57.422Z,10.8
2023-04-17T13:15:06.531Z,12
2023-04-17T13:17:14.093Z,11.4
2023-04-17T13:19:19.063Z,10.5
2023-04-17T13:30:57.829Z,13.4
2023-04-17T13:33:04.178Z,11.9
2023-04-17T13:37:16.608Z,9.3
2023-04-17T13:39:22.859Z,9.7
2023-04-17T13:41:29.126Z,8.8
2023-04-17T13:43:38.234Z,10.7
2023-04-17T13:47:50.827Z,9.4
2023-04-17T13:49:57.024Z,10
2023-04-17T13:52:03.386Z,9.3
2023-04-17T13:54:09.559Z,8.9
2023-04-17T14:02:37.778Z,11.3
2023-04-17T14:04:43.844Z,9.3
2023-04-17T14:17:24.241Z,11
2023-04-17T14:18:28.793Z,10.4
2023-04-17T14:29:03.006Z,11.2
2023-04-17T14:33:15.521Z,11.7
2023-04-17T14:37:28.099Z,13.1
2023-04-17T14:39:34.352Z,10.6
2023-04-17T14:41:43.567Z,11.5
2023-04-17T14:43:49.762Z,11.3
2023-04-17T14:48:02.290Z,10.6
2023-04-17T14:50:08.585Z,12.4
2023-04-17T14:52:14.841Z,10.6
2023-04-17T15:00:42.803Z,11.7
2023-04-17T15:02:49.202Z,11.8
2023-04-17T15:04:55.284Z,11.4
2023-04-17T15:11:16.943Z,9.6
2023-04-17T15:13:23.199Z,9.9
2023-04-17T15:15:29.502Z,8.6
2023-04-17T15:17:55.072Z,8.4
2023-04-17T15:20:01.228Z,9.2
2023-04-17T15:24:16.616Z,10.6
2023-04-17T15:26:22.849Z,6.8
2023-04-17T15:28:29.113Z,9
2023-04-17T15:30:35.359Z,8.2
2023-04-17T15:34:47.907Z,8
2023-04-17T15:41:10.842Z,10.1
2023-04-17T15:43:15.838Z,10.2
2023-04-17T15:45:22.130Z,10.1
2023-04-17T15:47:28.410Z,11.5
2023-04-17T15:53:50.116Z,11.9
2023-04-17T15:55:56.374Z,12.1
2023-04-17T15:58:02.654Z,10.3
2023-04-17T16:00:08.954Z,11.7
2023-04-17T16:02:15.336Z,11.8
2023-04-17T16:06:27.786Z,10.8
2023-04-17T16:13:53.954Z,10.7
2023-04-17T16:16:00.300Z,10.3
2023-04-17T16:18:06.573Z,10.9
2023-04-17T16:26:34.405Z,9.3
2023-04-17T16:28:40.688Z,9.7
2023-04-17T16:30:46.942Z,9.9
2023-04-17T16:32:53.234Z,9.3
2023-04-17T16:34:59.500Z,10.2
2023-04-17T16:37:08.617Z,9.4
2023-04-17T16:39:15.056Z,9.6
2023-04-17T16:41:21.138Z,8.4
2023-04-17T16:43:27.410Z,9.5
2023-04-17T16:45:33.702Z,7.3
2023-04-17T16:47:40.069Z,7.6
2023-04-17T16:49:46.230Z,10
2023-04-17T16:58:14.143Z,8.4
2023-04-17T17:00:20.419Z,9.1
2023-04-17T17:02:26.738Z,7.8
2023-04-17T17:06:42.017Z,8.5
2023-04-17T17:08:48.247Z,7.7
2023-04-17T17:10:54.882Z,7.6
2023-04-17T17:11:59.072Z,8
2023-04-17T17:14:05.330Z,8.4
2023-04-17T17:16:11.608Z,7.3
2023-04-17T17:24:39.468Z,7
2023-04-17T17:26:45.735Z,7.5
2023-04-17T17:28:52.001Z,6.7
2023-04-17T17:30:58.238Z,7.4
2023-04-17T17:35:13.615Z,7.6
2023-04-17T17:37:19.890Z,8.6
2023-04-17T17:39:26.126Z,8.8
2023-04-17T17:41:32.420Z,7.9
2023-04-17T17:45:44.967Z,8.5
2023-04-17T17:47:51.259Z,7.7
2023-04-17T17:50:00.377Z,9.1
2023-04-17T17:52:06.629Z,9.1
2023-04-17T17:54:13.276Z,7.8
2023-04-17T17:56:19.215Z,6.8
2023-04-17T17:58:25.486Z,8.2
2023-04-17T18:00:31.806Z,7.8
2023-04-17T18:02:38.219Z,8.5
2023-04-17T18:04:47.321Z,7.2
2023-04-17T18:06:53.537Z,9.8
2023-04-17T18:08:59.792Z,9
2023-04-17T18:10:04.356Z,8.5
2023-04-17T18:12:10.662Z,10
2023-04-17T18:14:16.961Z,8.8
2023-04-17T18:18:32.376Z,9.1
2023-04-17T18:20:38.681Z,9
2023-04-17T18:22:44.968Z,8.2
2023-04-17T18:24:51.242Z,8.1
2023-04-17T18:26:57.560Z,9.3
2023-04-17T18:29:03.844Z,10.4
2023-04-17T18:31:10.210Z,9.1
2023-04-17T18:33:19.270Z,9.3
2023-04-17T18:37:31.848Z,8.4
2023-04-17T18:45:57.040Z,9.7
2023-04-17T18:50:12.420Z,9.3
2023-04-17T18:52:18.741Z,7.3
2023-04-17T18:58:37.622Z,6.9
2023-04-17T19:00:46.350Z,8.6
2023-04-17T19:05:00.827Z,7.7
2023-04-17T19:07:07.117Z,7.6
2023-04-17T19:11:36.788Z,6.7
2023-04-17T19:13:43.062Z,6.9
2023-04-17T19:15:52.208Z,7.4
2023-04-17T19:17:58.490Z,7.6
2023-04-17T19:34:51.580Z,8.7
2023-04-17T19:39:04.170Z,7.9
2023-04-17T19:41:10.434Z,7.5
2023-04-17T19:43:16.726Z,7.5
2023-04-17T19:45:25.797Z,7.9
2023-04-17T19:53:50.940Z,7.1
2023-04-17T19:55:57.221Z,7
2023-04-17T19:58:03.511Z,7
2023-04-17T20:00:12.588Z,7.3
2023-04-17T20:02:18.931Z,7
2023-04-17T20:04:25.357Z,6
2023-04-17T20:05:29.677Z,6.7
2023-04-17T20:07:35.987Z,7
2023-04-17T20:09:42.226Z,7
2023-04-17T20:16:03.872Z,7.6
2023-04-17T20:22:22.678Z,8.7
2023-04-17T20:24:28.957Z,5.4
2023-04-17T20:26:37.269Z,6.6
2023-04-17T20:28:44.308Z,7.1
2023-04-17T20:30:50.726Z,7.9
2023-04-17T20:32:56.913Z,7.8
2023-04-17T20:35:03.135Z,8.2
2023-04-17T20:37:09.369Z,8.7
2023-04-17T20:39:15.756Z,8.8
2023-04-17T20:41:21.912Z,9.2
2023-04-17T20:43:30.984Z,8.8
2023-04-17T20:49:49.755Z,9.2
2023-04-17T21:03:34.761Z,12
2023-04-17T21:05:40.943Z,10.5
2023-04-17T21:07:48.139Z,12.2
2023-04-17T21:09:53.442Z,11.8
2023-04-17T21:12:02.493Z,11.9
2023-04-17T21:16:15.103Z,11
2023-04-17T21:18:21.253Z,12.7
2023-04-17T21:20:27.508Z,11.7
2023-04-17T21:22:33.757Z,12.3
2023-04-17T21:24:40.010Z,13.6
2023-04-17T21:26:49.084Z,13.6
2023-04-17T21:28:55.309Z,13.4
2023-04-17T21:31:01.579Z,14.5
2023-04-17T21:33:07.863Z,14.7
2023-04-17T21:35:14.096Z,11.9
2023-04-17T21:37:20.322Z,15.4
2023-04-17T21:39:26.575Z,15.6
2023-04-17T21:41:35.625Z,16.9
2023-04-17T21:43:41.896Z,15.3
2023-04-17T21:45:50.029Z,17.2
2023-04-17T21:47:54.409Z,14.6
2023-04-17T21:50:00.654Z,16.2
2023-04-17T21:52:06.912Z,16.2
2023-04-17T21:54:13.370Z,20.2
2023-04-17T21:58:28.425Z,16.2
2023-04-17T22:00:34.709Z,16.8
2023-04-17T22:01:39.298Z,16.8
2023-04-17T22:03:45.452Z,16.2
2023-04-17T22:10:06.982Z,18.7
2023-04-17T22:12:13.231Z,17.7
2023-04-17T22:14:19.456Z,18.5
2023-04-17T22:16:25.729Z,16.3
2023-04-17T22:20:38.179Z,17.4
2023-04-17T22:22:44.400Z,18.5
2023-04-17T22:24:53.444Z,19.8
2023-04-17T22:31:12.206Z,18
2023-04-17T22:37:30.864Z,12.9
2023-04-17T22:43:52.357Z,10.3
2023-04-17T22:45:58.668Z,10
2023-04-17T22:48:04.834Z,9.1
2023-04-17T22:50:11.123Z,10.1
2023-04-17T22:52:17.320Z,8.8
2023-04-17T22:54:26.480Z,9.6
2023-04-17T22:56:32.581Z,9.4
2023-04-17T22:58:38.827Z,9.2
2023-04-17T23:01:02.663Z,10.4
2023-04-17T23:03:09.676Z,9.9
2023-04-17T23:05:15.174Z,8.3
2023-04-17T23:07:24.166Z,10
2023-04-17T23:09:30.418Z,9.8
2023-04-17T23:13:42.878Z,10.3
2023-04-17T23:15:49.122Z,11.4
2023-04-17T23:17:55.380Z,10.7
2023-04-17T23:24:16.824Z,10.7
2023-04-17T23:26:23.047Z,10.7
2023-04-17T23:30:35.514Z,10.7
2023-04-17T23:32:41.877Z,10.1
2023-04-17T23:34:47.936Z,10.4
2023-04-17T23:36:56.998Z,9.2
2023-04-17T23:39:03.206Z,8.9
2023-04-17T23:41:09.422Z,10.5
2023-04-17T23:43:15.640Z,9.9
2023-04-17T23:45:21.869Z,8.9
2023-04-17T23:47:28.106Z,10.8
2023-04-17T23:49:34.303Z,9.7
2023-04-17T23:51:43.305Z,9
2023-04-17T23:53:49.556Z,10
2023-04-17T23:57:00.264Z,9.6
2023-04-17T23:59:06.489Z,9.1
